<?xml version="1.0" encoding="UTF-8" standalone="no" ?>
<gpx xmlns="http://www.topografix.com/GPX/1/1" xmlns:xsi="http://www.w3.org/2001/XMLSchema-instance" xsi:schemaLocation="http://www.topografix.com/GPX/1/1 http://www.topografix.com/GPX/1/1/gpx.xsd" version="1.1" creator="VisuGPX - https://www.visugpx.com">
  <metadata>
    <name>Sainte Victoire </name>
    <desc><![CDATA[grp_trc:[nouvelles]]]></desc>
  </metadata>
  <trk>
    <name><![CDATA[30 mai 2019 à 18:48:35]]></name>
    <cmt><![CDATA[30 mai 2019 à 18:48:35]]></cmt>
    <trkseg>
      <trkpt lat="45.58291" lon="6.13655">
        <ele>910</ele>
        <time>2019-05-30T16:48:36Z</time>
      </trkpt>
      <trkpt lat="45.58292" lon="6.13656">
        <ele>910</ele>
        <time>2019-05-30T16:48:37Z</time>
      </trkpt>
      <trkpt lat="45.58339" lon="6.13671">
        <ele>899</ele>
        <time>2019-05-30T16:50:22Z</time>
      </trkpt>
      <trkpt lat="45.58375" lon="6.13656">
        <ele>889</ele>
        <time>2019-05-30T16:51:02Z</time>
      </trkpt>
      <trkpt lat="45.58351" lon="6.13616">
        <ele>894</ele>
        <time>2019-05-30T16:53:26Z</time>
      </trkpt>
      <trkpt lat="45.58226" lon="6.13548">
        <ele>897</ele>
        <time>2019-05-30T16:53:42Z</time>
      </trkpt>
      <trkpt lat="45.5816" lon="6.13543">
        <ele>893</ele>
        <time>2019-05-30T16:53:50Z</time>
      </trkpt>
      <trkpt lat="45.5806" lon="6.13584">
        <ele>886</ele>
        <time>2019-05-30T16:54:00Z</time>
      </trkpt>
      <trkpt lat="45.57951" lon="6.13561">
        <ele>877</ele>
        <time>2019-05-30T16:54:09Z</time>
      </trkpt>
      <trkpt lat="45.57922" lon="6.13542">
        <ele>874</ele>
        <time>2019-05-30T16:54:12Z</time>
      </trkpt>
      <trkpt lat="45.57907" lon="6.13566">
        <ele>866</ele>
        <time>2019-05-30T16:54:31Z</time>
      </trkpt>
      <trkpt lat="45.57913" lon="6.13624">
        <ele>864</ele>
        <time>2019-05-30T16:54:34Z</time>
      </trkpt>
      <trkpt lat="45.57894" lon="6.13649">
        <ele>861</ele>
        <time>2019-05-30T16:54:37Z</time>
      </trkpt>
      <trkpt lat="45.57936" lon="6.1373">
        <ele>855</ele>
        <time>2019-05-30T16:54:47Z</time>
      </trkpt>
      <trkpt lat="45.57966" lon="6.13756">
        <ele>854</ele>
        <time>2019-05-30T16:54:51Z</time>
      </trkpt>
      <trkpt lat="45.58008" lon="6.13823">
        <ele>846</ele>
        <time>2019-05-30T16:54:58Z</time>
      </trkpt>
      <trkpt lat="45.58022" lon="6.13867">
        <ele>844</ele>
        <time>2019-05-30T16:55:02Z</time>
      </trkpt>
      <trkpt lat="45.58026" lon="6.13909">
        <ele>839</ele>
        <time>2019-05-30T16:55:06Z</time>
      </trkpt>
      <trkpt lat="45.58034" lon="6.13949">
        <ele>838</ele>
        <time>2019-05-30T16:55:10Z</time>
      </trkpt>
      <trkpt lat="45.58051" lon="6.14041">
        <ele>830</ele>
        <time>2019-05-30T16:55:18Z</time>
      </trkpt>
      <trkpt lat="45.58113" lon="6.14144">
        <ele>822</ele>
        <time>2019-05-30T16:55:29Z</time>
      </trkpt>
      <trkpt lat="45.58138" lon="6.14168">
        <ele>818</ele>
        <time>2019-05-30T16:55:33Z</time>
      </trkpt>
      <trkpt lat="45.5816" lon="6.14196">
        <ele>811</ele>
        <time>2019-05-30T16:55:40Z</time>
      </trkpt>
      <trkpt lat="45.58174" lon="6.14236">
        <ele>811</ele>
        <time>2019-05-30T16:55:43Z</time>
      </trkpt>
      <trkpt lat="45.58232" lon="6.14311">
        <ele>803</ele>
        <time>2019-05-30T16:55:52Z</time>
      </trkpt>
      <trkpt lat="45.58255" lon="6.14354">
        <ele>802</ele>
        <time>2019-05-30T16:55:55Z</time>
      </trkpt>
      <trkpt lat="45.58358" lon="6.14416">
        <ele>793</ele>
        <time>2019-05-30T16:56:05Z</time>
      </trkpt>
      <trkpt lat="45.58316" lon="6.14414">
        <ele>783</ele>
        <time>2019-05-30T16:56:19Z</time>
      </trkpt>
      <trkpt lat="45.58307" lon="6.14438">
        <ele>774</ele>
        <time>2019-05-30T16:56:39Z</time>
      </trkpt>
      <trkpt lat="45.58249" lon="6.14424">
        <ele>765</ele>
        <time>2019-05-30T16:56:55Z</time>
      </trkpt>
      <trkpt lat="45.58178" lon="6.14385">
        <ele>758</ele>
        <time>2019-05-30T16:57:02Z</time>
      </trkpt>
      <trkpt lat="45.58147" lon="6.1436">
        <ele>754</ele>
        <time>2019-05-30T16:57:06Z</time>
      </trkpt>
      <trkpt lat="45.58154" lon="6.14415">
        <ele>752</ele>
        <time>2019-05-30T16:57:17Z</time>
      </trkpt>
      <trkpt lat="45.58194" lon="6.14505">
        <ele>745</ele>
        <time>2019-05-30T16:57:24Z</time>
      </trkpt>
      <trkpt lat="45.58206" lon="6.14556">
        <ele>739</ele>
        <time>2019-05-30T16:57:27Z</time>
      </trkpt>
      <trkpt lat="45.58223" lon="6.14607">
        <ele>736</ele>
        <time>2019-05-30T16:57:30Z</time>
      </trkpt>
      <trkpt lat="45.58243" lon="6.1466">
        <ele>736</ele>
        <time>2019-05-30T16:57:33Z</time>
      </trkpt>
      <trkpt lat="45.58239" lon="6.1474">
        <ele>734</ele>
        <time>2019-05-30T16:57:36Z</time>
      </trkpt>
      <trkpt lat="45.58316" lon="6.14872">
        <ele>720</ele>
        <time>2019-05-30T16:57:47Z</time>
      </trkpt>
      <trkpt lat="45.58352" lon="6.14883">
        <ele>718</ele>
        <time>2019-05-30T16:57:49Z</time>
      </trkpt>
      <trkpt lat="45.58315" lon="6.14812">
        <ele>705</ele>
        <time>2019-05-30T16:58:13Z</time>
      </trkpt>
      <trkpt lat="45.58297" lon="6.14789">
        <ele>701</ele>
        <time>2019-05-30T16:58:15Z</time>
      </trkpt>
      <trkpt lat="45.58328" lon="6.14861">
        <ele>692</ele>
        <time>2019-05-30T16:58:33Z</time>
      </trkpt>
      <trkpt lat="45.5836" lon="6.14899">
        <ele>690</ele>
        <time>2019-05-30T16:58:36Z</time>
      </trkpt>
      <trkpt lat="45.58405" lon="6.14982">
        <ele>682</ele>
        <time>2019-05-30T16:58:41Z</time>
      </trkpt>
      <trkpt lat="45.5847" lon="6.15094">
        <ele>674</ele>
        <time>2019-05-30T16:58:51Z</time>
      </trkpt>
      <trkpt lat="45.58509" lon="6.15141">
        <ele>670</ele>
        <time>2019-05-30T16:58:55Z</time>
      </trkpt>
      <trkpt lat="45.58576" lon="6.15192">
        <ele>659</ele>
        <time>2019-05-30T16:59:03Z</time>
      </trkpt>
      <trkpt lat="45.5859" lon="6.15212">
        <ele>655</ele>
        <time>2019-05-30T16:59:07Z</time>
      </trkpt>
      <trkpt lat="45.58609" lon="6.15248">
        <ele>654</ele>
        <time>2019-05-30T16:59:11Z</time>
      </trkpt>
      <trkpt lat="45.5863" lon="6.15276">
        <ele>652</ele>
        <time>2019-05-30T16:59:16Z</time>
      </trkpt>
      <trkpt lat="45.58665" lon="6.15304">
        <ele>650</ele>
        <time>2019-05-30T16:59:21Z</time>
      </trkpt>
      <trkpt lat="45.58618" lon="6.15315">
        <ele>640</ele>
        <time>2019-05-30T16:59:41Z</time>
      </trkpt>
      <trkpt lat="45.58567" lon="6.15285">
        <ele>638</ele>
        <time>2019-05-30T16:59:47Z</time>
      </trkpt>
      <trkpt lat="45.58471" lon="6.15257">
        <ele>628</ele>
        <time>2019-05-30T16:59:54Z</time>
      </trkpt>
      <trkpt lat="45.58442" lon="6.15206">
        <ele>626</ele>
        <time>2019-05-30T16:59:56Z</time>
      </trkpt>
      <trkpt lat="45.58366" lon="6.15174">
        <ele>623</ele>
        <time>2019-05-30T17:00:00Z</time>
      </trkpt>
      <trkpt lat="45.5826" lon="6.15225">
        <ele>615</ele>
        <time>2019-05-30T17:00:06Z</time>
      </trkpt>
      <trkpt lat="45.58224" lon="6.15233">
        <ele>610</ele>
        <time>2019-05-30T17:00:09Z</time>
      </trkpt>
      <trkpt lat="45.58179" lon="6.15212">
        <ele>603</ele>
        <time>2019-05-30T17:00:12Z</time>
      </trkpt>
      <trkpt lat="45.58146" lon="6.15206">
        <ele>601</ele>
        <time>2019-05-30T17:00:14Z</time>
      </trkpt>
      <trkpt lat="45.58108" lon="6.15196">
        <ele>600</ele>
        <time>2019-05-30T17:00:17Z</time>
      </trkpt>
      <trkpt lat="45.58006" lon="6.15133">
        <ele>591</ele>
        <time>2019-05-30T17:00:26Z</time>
      </trkpt>
      <trkpt lat="45.57971" lon="6.15101">
        <ele>587</ele>
        <time>2019-05-30T17:00:29Z</time>
      </trkpt>
      <trkpt lat="45.57943" lon="6.15069">
        <ele>586</ele>
        <time>2019-05-30T17:00:32Z</time>
      </trkpt>
      <trkpt lat="45.57916" lon="6.15052">
        <ele>581</ele>
        <time>2019-05-30T17:00:36Z</time>
      </trkpt>
      <trkpt lat="45.57922" lon="6.15101">
        <ele>579</ele>
        <time>2019-05-30T17:00:49Z</time>
      </trkpt>
      <trkpt lat="45.57995" lon="6.15209">
        <ele>571</ele>
        <time>2019-05-30T17:00:57Z</time>
      </trkpt>
      <trkpt lat="45.5798" lon="6.15241">
        <ele>562</ele>
        <time>2019-05-30T17:01:07Z</time>
      </trkpt>
      <trkpt lat="45.57919" lon="6.15201">
        <ele>558</ele>
        <time>2019-05-30T17:01:13Z</time>
      </trkpt>
      <trkpt lat="45.57837" lon="6.15089">
        <ele>551</ele>
        <time>2019-05-30T17:01:21Z</time>
      </trkpt>
      <trkpt lat="45.57812" lon="6.15049">
        <ele>549</ele>
        <time>2019-05-30T17:01:24Z</time>
      </trkpt>
      <trkpt lat="45.57794" lon="6.15062">
        <ele>538</ele>
        <time>2019-05-30T17:01:39Z</time>
      </trkpt>
      <trkpt lat="45.57816" lon="6.15119">
        <ele>535</ele>
        <time>2019-05-30T17:01:42Z</time>
      </trkpt>
      <trkpt lat="45.57816" lon="6.15171">
        <ele>532</ele>
        <time>2019-05-30T17:01:44Z</time>
      </trkpt>
      <trkpt lat="45.57799" lon="6.15215">
        <ele>529</ele>
        <time>2019-05-30T17:01:46Z</time>
      </trkpt>
      <trkpt lat="45.57776" lon="6.15235">
        <ele>526</ele>
        <time>2019-05-30T17:01:48Z</time>
      </trkpt>
      <trkpt lat="45.57772" lon="6.1528">
        <ele>523</ele>
        <time>2019-05-30T17:01:51Z</time>
      </trkpt>
      <trkpt lat="45.57789" lon="6.15316">
        <ele>523</ele>
        <time>2019-05-30T17:01:54Z</time>
      </trkpt>
      <trkpt lat="45.57768" lon="6.1531">
        <ele>495</ele>
        <time>2019-05-30T17:02:14Z</time>
      </trkpt>
      <trkpt lat="45.57729" lon="6.15296">
        <ele>495</ele>
        <time>2019-05-30T17:02:17Z</time>
      </trkpt>
      <trkpt lat="45.57692" lon="6.15289">
        <ele>495</ele>
        <time>2019-05-30T17:02:20Z</time>
      </trkpt>
      <trkpt lat="45.57664" lon="6.15266">
        <ele>495</ele>
        <time>2019-05-30T17:02:23Z</time>
      </trkpt>
      <trkpt lat="45.57639" lon="6.15129">
        <ele>494</ele>
        <time>2019-05-30T17:02:29Z</time>
      </trkpt>
      <trkpt lat="45.57632" lon="6.1508">
        <ele>490</ele>
        <time>2019-05-30T17:02:32Z</time>
      </trkpt>
      <trkpt lat="45.57635" lon="6.15018">
        <ele>485</ele>
        <time>2019-05-30T17:02:36Z</time>
      </trkpt>
      <trkpt lat="45.57609" lon="6.14982">
        <ele>484</ele>
        <time>2019-05-30T17:02:43Z</time>
      </trkpt>
      <trkpt lat="45.57594" lon="6.15025">
        <ele>482</ele>
        <time>2019-05-30T17:02:47Z</time>
      </trkpt>
      <trkpt lat="45.57545" lon="6.15154">
        <ele>474</ele>
        <time>2019-05-30T17:02:55Z</time>
      </trkpt>
      <trkpt lat="45.57532" lon="6.15203">
        <ele>472</ele>
        <time>2019-05-30T17:02:58Z</time>
      </trkpt>
      <trkpt lat="45.57554" lon="6.15421">
        <ele>461</ele>
        <time>2019-05-30T17:03:08Z</time>
      </trkpt>
      <trkpt lat="45.57557" lon="6.15518">
        <ele>450</ele>
        <time>2019-05-30T17:03:18Z</time>
      </trkpt>
      <trkpt lat="45.5754" lon="6.15526">
        <ele>448</ele>
        <time>2019-05-30T17:03:23Z</time>
      </trkpt>
      <trkpt lat="45.57506" lon="6.15542">
        <ele>445</ele>
        <time>2019-05-30T17:03:28Z</time>
      </trkpt>
      <trkpt lat="45.57482" lon="6.15567">
        <ele>442</ele>
        <time>2019-05-30T17:03:32Z</time>
      </trkpt>
      <trkpt lat="45.57371" lon="6.15607">
        <ele>437</ele>
        <time>2019-05-30T17:03:39Z</time>
      </trkpt>
      <trkpt lat="45.5734" lon="6.15648">
        <ele>436</ele>
        <time>2019-05-30T17:03:42Z</time>
      </trkpt>
      <trkpt lat="45.5733" lon="6.15933">
        <ele>426</ele>
        <time>2019-05-30T17:03:55Z</time>
      </trkpt>
      <trkpt lat="45.57334" lon="6.15987">
        <ele>423</ele>
        <time>2019-05-30T17:03:58Z</time>
      </trkpt>
      <trkpt lat="45.57337" lon="6.16146">
        <ele>418</ele>
        <time>2019-05-30T17:04:06Z</time>
      </trkpt>
      <trkpt lat="45.57342" lon="6.1619">
        <ele>417</ele>
        <time>2019-05-30T17:04:08Z</time>
      </trkpt>
      <trkpt lat="45.57377" lon="6.16241">
        <ele>416</ele>
        <time>2019-05-30T17:04:10Z</time>
      </trkpt>
      <trkpt lat="45.57368" lon="6.16326">
        <ele>411</ele>
        <time>2019-05-30T17:04:15Z</time>
      </trkpt>
      <trkpt lat="45.57367" lon="6.16366">
        <ele>409</ele>
        <time>2019-05-30T17:04:19Z</time>
      </trkpt>
      <trkpt lat="45.57341" lon="6.16349">
        <ele>405</ele>
        <time>2019-05-30T17:04:28Z</time>
      </trkpt>
      <trkpt lat="45.5733" lon="6.16291">
        <ele>404</ele>
        <time>2019-05-30T17:04:32Z</time>
      </trkpt>
      <trkpt lat="45.56975" lon="6.15899">
        <ele>377</ele>
        <time>2019-05-30T17:05:06Z</time>
      </trkpt>
      <trkpt lat="45.56952" lon="6.15813">
        <ele>375</ele>
        <time>2019-05-30T17:05:13Z</time>
      </trkpt>
      <trkpt lat="45.5694" lon="6.1577">
        <ele>374</ele>
        <time>2019-05-30T17:05:16Z</time>
      </trkpt>
      <trkpt lat="45.56915" lon="6.15753">
        <ele>372</ele>
        <time>2019-05-30T17:05:20Z</time>
      </trkpt>
      <trkpt lat="45.56881" lon="6.15763">
        <ele>367</ele>
        <time>2019-05-30T17:05:44Z</time>
      </trkpt>
      <trkpt lat="45.56852" lon="6.15844">
        <ele>366</ele>
        <time>2019-05-30T17:05:51Z</time>
      </trkpt>
      <trkpt lat="45.56836" lon="6.15879">
        <ele>363</ele>
        <time>2019-05-30T17:05:54Z</time>
      </trkpt>
      <trkpt lat="45.56803" lon="6.15891">
        <ele>359</ele>
        <time>2019-05-30T17:05:58Z</time>
      </trkpt>
      <trkpt lat="45.56782" lon="6.15873">
        <ele>357</ele>
        <time>2019-05-30T17:06:02Z</time>
      </trkpt>
      <trkpt lat="45.56743" lon="6.15789">
        <ele>351</ele>
        <time>2019-05-30T17:06:11Z</time>
      </trkpt>
      <trkpt lat="45.56569" lon="6.1553">
        <ele>342</ele>
        <time>2019-05-30T17:06:28Z</time>
      </trkpt>
      <trkpt lat="45.56513" lon="6.15464">
        <ele>337</ele>
        <time>2019-05-30T17:06:33Z</time>
      </trkpt>
      <trkpt lat="45.56479" lon="6.15432">
        <ele>331</ele>
        <time>2019-05-30T17:06:36Z</time>
      </trkpt>
      <trkpt lat="45.56454" lon="6.15406">
        <ele>327</ele>
        <time>2019-05-30T17:06:40Z</time>
      </trkpt>
      <trkpt lat="45.56452" lon="6.15358">
        <ele>326</ele>
        <time>2019-05-30T17:06:47Z</time>
      </trkpt>
      <trkpt lat="45.56409" lon="6.14867">
        <ele>321</ele>
        <time>2019-05-30T17:07:11Z</time>
      </trkpt>
      <trkpt lat="45.56387" lon="6.14779">
        <ele>314</ele>
        <time>2019-05-30T17:07:15Z</time>
      </trkpt>
      <trkpt lat="45.56383" lon="6.14736">
        <ele>310</ele>
        <time>2019-05-30T17:07:17Z</time>
      </trkpt>
      <trkpt lat="45.56406" lon="6.146">
        <ele>304</ele>
        <time>2019-05-30T17:07:26Z</time>
      </trkpt>
      <trkpt lat="45.56415" lon="6.14551">
        <ele>303</ele>
        <time>2019-05-30T17:07:30Z</time>
      </trkpt>
      <trkpt lat="45.56413" lon="6.14504">
        <ele>303</ele>
        <time>2019-05-30T17:07:34Z</time>
      </trkpt>
      <trkpt lat="45.56406" lon="6.14462">
        <ele>301</ele>
        <time>2019-05-30T17:07:38Z</time>
      </trkpt>
      <trkpt lat="45.56328" lon="6.14305">
        <ele>299</ele>
        <time>2019-05-30T17:07:48Z</time>
      </trkpt>
      <trkpt lat="45.56227" lon="6.13951">
        <ele>289</ele>
        <time>2019-05-30T17:08:13Z</time>
      </trkpt>
      <trkpt lat="45.56224" lon="6.13876">
        <ele>287</ele>
        <time>2019-05-30T17:08:20Z</time>
      </trkpt>
      <trkpt lat="45.56154" lon="6.13651">
        <ele>281</ele>
        <time>2019-05-30T17:08:35Z</time>
      </trkpt>
      <trkpt lat="45.56086" lon="6.13555">
        <ele>275</ele>
        <time>2019-05-30T17:08:45Z</time>
      </trkpt>
      <trkpt lat="45.5598" lon="6.13386">
        <ele>280</ele>
        <time>2019-05-30T17:08:58Z</time>
      </trkpt>
      <trkpt lat="45.55736" lon="6.13103">
        <ele>282</ele>
        <time>2019-05-30T17:09:26Z</time>
      </trkpt>
      <trkpt lat="45.55693" lon="6.13038">
        <ele>279</ele>
        <time>2019-05-30T17:09:34Z</time>
      </trkpt>
      <trkpt lat="45.55546" lon="6.12718">
        <ele>273</ele>
        <time>2019-05-30T17:10:07Z</time>
      </trkpt>
      <trkpt lat="45.55527" lon="6.12684">
        <ele>273</ele>
        <time>2019-05-30T17:10:11Z</time>
      </trkpt>
      <trkpt lat="45.55431" lon="6.12631">
        <ele>269</ele>
        <time>2019-05-30T17:10:25Z</time>
      </trkpt>
      <trkpt lat="45.55379" lon="6.12567">
        <ele>270</ele>
        <time>2019-05-30T17:10:31Z</time>
      </trkpt>
      <trkpt lat="45.55303" lon="6.12388">
        <ele>273</ele>
        <time>2019-05-30T17:10:42Z</time>
      </trkpt>
      <trkpt lat="45.55254" lon="6.12316">
        <ele>273</ele>
        <time>2019-05-30T17:10:47Z</time>
      </trkpt>
      <trkpt lat="45.54875" lon="6.11895">
        <ele>297</ele>
        <time>2019-05-30T17:11:18Z</time>
      </trkpt>
      <trkpt lat="45.54475" lon="6.11478">
        <ele>325</ele>
        <time>2019-05-30T17:11:50Z</time>
      </trkpt>
      <trkpt lat="45.54014" lon="6.10988">
        <ele>331</ele>
        <time>2019-05-30T17:12:22Z</time>
      </trkpt>
      <trkpt lat="45.53835" lon="6.10807">
        <ele>334</ele>
        <time>2019-05-30T17:12:36Z</time>
      </trkpt>
      <trkpt lat="45.53808" lon="6.10779">
        <ele>332</ele>
        <time>2019-05-30T17:12:39Z</time>
      </trkpt>
      <trkpt lat="45.53706" lon="6.10594">
        <ele>330</ele>
        <time>2019-05-30T17:12:56Z</time>
      </trkpt>
      <trkpt lat="45.53639" lon="6.10514">
        <ele>333</ele>
        <time>2019-05-30T17:13:02Z</time>
      </trkpt>
      <trkpt lat="45.533" lon="6.10225">
        <ele>335</ele>
        <time>2019-05-30T17:13:30Z</time>
      </trkpt>
      <trkpt lat="45.5294" lon="6.09721">
        <ele>335</ele>
        <time>2019-05-30T17:14:00Z</time>
      </trkpt>
      <trkpt lat="45.529" lon="6.09652">
        <ele>336</ele>
        <time>2019-05-30T17:14:04Z</time>
      </trkpt>
      <trkpt lat="45.52884" lon="6.09593">
        <ele>336</ele>
        <time>2019-05-30T17:14:07Z</time>
      </trkpt>
      <trkpt lat="45.52885" lon="6.09542">
        <ele>337</ele>
        <time>2019-05-30T17:14:10Z</time>
      </trkpt>
      <trkpt lat="45.52916" lon="6.09444">
        <ele>336</ele>
        <time>2019-05-30T17:14:17Z</time>
      </trkpt>
      <trkpt lat="45.52877" lon="6.09373">
        <ele>334</ele>
        <time>2019-05-30T17:14:19Z</time>
      </trkpt>
      <trkpt lat="45.52878" lon="6.09339">
        <ele>333</ele>
        <time>2019-05-30T17:14:21Z</time>
      </trkpt>
      <trkpt lat="45.52864" lon="6.09283">
        <ele>333</ele>
        <time>2019-05-30T17:14:24Z</time>
      </trkpt>
      <trkpt lat="45.52847" lon="6.09251">
        <ele>333</ele>
        <time>2019-05-30T17:14:27Z</time>
      </trkpt>
      <trkpt lat="45.52804" lon="6.09231">
        <ele>329</ele>
        <time>2019-05-30T17:14:35Z</time>
      </trkpt>
      <trkpt lat="45.5277" lon="6.09228">
        <ele>330</ele>
        <time>2019-05-30T17:14:44Z</time>
      </trkpt>
      <trkpt lat="45.52729" lon="6.09315">
        <ele>328</ele>
        <time>2019-05-30T17:14:51Z</time>
      </trkpt>
      <trkpt lat="45.52671" lon="6.09329">
        <ele>327</ele>
        <time>2019-05-30T17:14:53Z</time>
      </trkpt>
      <trkpt lat="45.52619" lon="6.09303">
        <ele>324</ele>
        <time>2019-05-30T17:15:00Z</time>
      </trkpt>
      <trkpt lat="45.52505" lon="6.0928">
        <ele>320</ele>
        <time>2019-05-30T17:15:11Z</time>
      </trkpt>
      <trkpt lat="45.52476" lon="6.09275">
        <ele>320</ele>
        <time>2019-05-30T17:15:14Z</time>
      </trkpt>
      <trkpt lat="45.52336" lon="6.09137">
        <ele>316</ele>
        <time>2019-05-30T17:15:29Z</time>
      </trkpt>
      <trkpt lat="45.52272" lon="6.09096">
        <ele>312</ele>
        <time>2019-05-30T17:15:37Z</time>
      </trkpt>
      <trkpt lat="45.52144" lon="6.08975">
        <ele>306</ele>
        <time>2019-05-30T17:15:53Z</time>
      </trkpt>
      <trkpt lat="45.52089" lon="6.08912">
        <ele>296</ele>
        <time>2019-05-30T17:16:02Z</time>
      </trkpt>
      <trkpt lat="45.52057" lon="6.08881">
        <ele>294</ele>
        <time>2019-05-30T17:16:06Z</time>
      </trkpt>
      <trkpt lat="45.51933" lon="6.08784">
        <ele>297</ele>
        <time>2019-05-30T17:16:16Z</time>
      </trkpt>
      <trkpt lat="45.51885" lon="6.08718">
        <ele>295</ele>
        <time>2019-05-30T17:16:20Z</time>
      </trkpt>
      <trkpt lat="45.51832" lon="6.08605">
        <ele>291</ele>
        <time>2019-05-30T17:16:26Z</time>
      </trkpt>
      <trkpt lat="45.51816" lon="6.0857">
        <ele>290</ele>
        <time>2019-05-30T17:16:28Z</time>
      </trkpt>
      <trkpt lat="45.51417" lon="6.08083">
        <ele>266</ele>
        <time>2019-05-30T17:16:59Z</time>
      </trkpt>
      <trkpt lat="45.51327" lon="6.07974">
        <ele>265</ele>
        <time>2019-05-30T17:17:05Z</time>
      </trkpt>
      <trkpt lat="45.51286" lon="6.07842">
        <ele>268</ele>
        <time>2019-05-30T17:17:11Z</time>
      </trkpt>
      <trkpt lat="45.51289" lon="6.07741">
        <ele>270</ele>
        <time>2019-05-30T17:17:15Z</time>
      </trkpt>
      <trkpt lat="45.5126" lon="6.07648">
        <ele>269</ele>
        <time>2019-05-30T17:17:20Z</time>
      </trkpt>
      <trkpt lat="45.51237" lon="6.07601">
        <ele>265</ele>
        <time>2019-05-30T17:17:24Z</time>
      </trkpt>
      <trkpt lat="45.51136" lon="6.07417">
        <ele>270</ele>
        <time>2019-05-30T17:17:41Z</time>
      </trkpt>
      <trkpt lat="45.51104" lon="6.07337">
        <ele>269</ele>
        <time>2019-05-30T17:17:47Z</time>
      </trkpt>
      <trkpt lat="45.51092" lon="6.07295">
        <ele>266</ele>
        <time>2019-05-30T17:17:52Z</time>
      </trkpt>
      <trkpt lat="45.51029" lon="6.07075">
        <ele>266</ele>
        <time>2019-05-30T17:18:07Z</time>
      </trkpt>
      <trkpt lat="45.51011" lon="6.07018">
        <ele>266</ele>
        <time>2019-05-30T17:18:10Z</time>
      </trkpt>
      <trkpt lat="45.50986" lon="6.06972">
        <ele>266</ele>
        <time>2019-05-30T17:18:13Z</time>
      </trkpt>
      <trkpt lat="45.50896" lon="6.06893">
        <ele>272</ele>
        <time>2019-05-30T17:18:22Z</time>
      </trkpt>
      <trkpt lat="45.50869" lon="6.0686">
        <ele>273</ele>
        <time>2019-05-30T17:18:26Z</time>
      </trkpt>
      <trkpt lat="45.50848" lon="6.06821">
        <ele>272</ele>
        <time>2019-05-30T17:18:29Z</time>
      </trkpt>
      <trkpt lat="45.50835" lon="6.06772">
        <ele>271</ele>
        <time>2019-05-30T17:18:33Z</time>
      </trkpt>
      <trkpt lat="45.50819" lon="6.06578">
        <ele>276</ele>
        <time>2019-05-30T17:18:47Z</time>
      </trkpt>
      <trkpt lat="45.50811" lon="6.06531">
        <ele>276</ele>
        <time>2019-05-30T17:18:50Z</time>
      </trkpt>
      <trkpt lat="45.50787" lon="6.06433">
        <ele>269</ele>
        <time>2019-05-30T17:18:58Z</time>
      </trkpt>
      <trkpt lat="45.50769" lon="6.06402">
        <ele>267</ele>
        <time>2019-05-30T17:19:02Z</time>
      </trkpt>
      <trkpt lat="45.50752" lon="6.06371">
        <ele>266</ele>
        <time>2019-05-30T17:19:06Z</time>
      </trkpt>
      <trkpt lat="45.50721" lon="6.06297">
        <ele>260</ele>
        <time>2019-05-30T17:19:14Z</time>
      </trkpt>
      <trkpt lat="45.50653" lon="6.06273">
        <ele>254</ele>
        <time>2019-05-30T17:19:23Z</time>
      </trkpt>
      <trkpt lat="45.5062" lon="6.06258">
        <ele>253</ele>
        <time>2019-05-30T17:19:27Z</time>
      </trkpt>
      <trkpt lat="45.50592" lon="6.06246">
        <ele>253</ele>
        <time>2019-05-30T17:19:31Z</time>
      </trkpt>
      <trkpt lat="45.50492" lon="6.06246">
        <ele>254</ele>
        <time>2019-05-30T17:19:40Z</time>
      </trkpt>
      <trkpt lat="45.50458" lon="6.06248">
        <ele>254</ele>
        <time>2019-05-30T17:19:43Z</time>
      </trkpt>
      <trkpt lat="45.50426" lon="6.06238">
        <ele>254</ele>
        <time>2019-05-30T17:19:46Z</time>
      </trkpt>
      <trkpt lat="45.50398" lon="6.06004">
        <ele>258</ele>
        <time>2019-05-30T17:20:05Z</time>
      </trkpt>
      <trkpt lat="45.50389" lon="6.05901">
        <ele>257</ele>
        <time>2019-05-30T17:20:11Z</time>
      </trkpt>
      <trkpt lat="45.50358" lon="6.05449">
        <ele>267</ele>
        <time>2019-05-30T17:20:37Z</time>
      </trkpt>
      <trkpt lat="45.50351" lon="6.05402">
        <ele>265</ele>
        <time>2019-05-30T17:20:40Z</time>
      </trkpt>
      <trkpt lat="45.50336" lon="6.05361">
        <ele>269</ele>
        <time>2019-05-30T17:20:43Z</time>
      </trkpt>
      <trkpt lat="45.50316" lon="6.05323">
        <ele>272</ele>
        <time>2019-05-30T17:20:46Z</time>
      </trkpt>
      <trkpt lat="45.50258" lon="6.05274">
        <ele>275</ele>
        <time>2019-05-30T17:20:52Z</time>
      </trkpt>
      <trkpt lat="45.50233" lon="6.05252">
        <ele>275</ele>
        <time>2019-05-30T17:20:55Z</time>
      </trkpt>
      <trkpt lat="45.50202" lon="6.05222">
        <ele>277</ele>
        <time>2019-05-30T17:20:59Z</time>
      </trkpt>
      <trkpt lat="45.50181" lon="6.05189">
        <ele>277</ele>
        <time>2019-05-30T17:21:02Z</time>
      </trkpt>
      <trkpt lat="45.50158" lon="6.05149">
        <ele>275</ele>
        <time>2019-05-30T17:21:05Z</time>
      </trkpt>
      <trkpt lat="45.50143" lon="6.05114">
        <ele>272</ele>
        <time>2019-05-30T17:21:09Z</time>
      </trkpt>
      <trkpt lat="45.50138" lon="6.05073">
        <ele>273</ele>
        <time>2019-05-30T17:21:14Z</time>
      </trkpt>
      <trkpt lat="45.50137" lon="6.04927">
        <ele>273</ele>
        <time>2019-05-30T17:21:26Z</time>
      </trkpt>
      <trkpt lat="45.50149" lon="6.04813">
        <ele>270</ele>
        <time>2019-05-30T17:21:35Z</time>
      </trkpt>
      <trkpt lat="45.50183" lon="6.04631">
        <ele>270</ele>
        <time>2019-05-30T17:21:49Z</time>
      </trkpt>
      <trkpt lat="45.50214" lon="6.04537">
        <ele>263</ele>
        <time>2019-05-30T17:21:58Z</time>
      </trkpt>
      <trkpt lat="45.50158" lon="6.04561">
        <ele>268</ele>
        <time>2019-05-30T17:22:15Z</time>
      </trkpt>
      <trkpt lat="45.50134" lon="6.04557">
        <ele>269</ele>
        <time>2019-05-30T17:22:18Z</time>
      </trkpt>
      <trkpt lat="45.501" lon="6.04551">
        <ele>270</ele>
        <time>2019-05-30T17:22:21Z</time>
      </trkpt>
      <trkpt lat="45.5007" lon="6.04547">
        <ele>270</ele>
        <time>2019-05-30T17:22:24Z</time>
      </trkpt>
      <trkpt lat="45.50039" lon="6.04522">
        <ele>270</ele>
        <time>2019-05-30T17:22:28Z</time>
      </trkpt>
      <trkpt lat="45.5004" lon="6.04475">
        <ele>272</ele>
        <time>2019-05-30T17:22:33Z</time>
      </trkpt>
      <trkpt lat="45.50187" lon="6.04146">
        <ele>272</ele>
        <time>2019-05-30T17:22:51Z</time>
      </trkpt>
      <trkpt lat="45.50213" lon="6.04109">
        <ele>273</ele>
        <time>2019-05-30T17:22:53Z</time>
      </trkpt>
      <trkpt lat="45.50334" lon="6.03952">
        <ele>267</ele>
        <time>2019-05-30T17:23:04Z</time>
      </trkpt>
      <trkpt lat="45.50358" lon="6.03923">
        <ele>261</ele>
        <time>2019-05-30T17:23:08Z</time>
      </trkpt>
      <trkpt lat="45.50387" lon="6.03919">
        <ele>260</ele>
        <time>2019-05-30T17:23:13Z</time>
      </trkpt>
      <trkpt lat="45.50416" lon="6.03917">
        <ele>259</ele>
        <time>2019-05-30T17:23:19Z</time>
      </trkpt>
      <trkpt lat="45.50431" lon="6.03868">
        <ele>261</ele>
        <time>2019-05-30T17:23:23Z</time>
      </trkpt>
      <trkpt lat="45.50578" lon="6.03055">
        <ele>271</ele>
        <time>2019-05-30T17:23:55Z</time>
      </trkpt>
      <trkpt lat="45.50584" lon="6.03023">
        <ele>269</ele>
        <time>2019-05-30T17:23:56Z</time>
      </trkpt>
      <trkpt lat="45.50591" lon="6.02994">
        <ele>264</ele>
        <time>2019-05-30T17:23:57Z</time>
      </trkpt>
      <trkpt lat="45.50786" lon="6.0204">
        <ele>278</ele>
        <time>2019-05-30T17:24:28Z</time>
      </trkpt>
      <trkpt lat="45.50826" lon="6.01884">
        <ele>278</ele>
        <time>2019-05-30T17:24:34Z</time>
      </trkpt>
      <trkpt lat="45.51139" lon="6.0129">
        <ele>279</ele>
        <time>2019-05-30T17:25:05Z</time>
      </trkpt>
      <trkpt lat="45.51296" lon="6.00939">
        <ele>280</ele>
        <time>2019-05-30T17:25:25Z</time>
      </trkpt>
      <trkpt lat="45.51328" lon="6.00919">
        <ele>277</ele>
        <time>2019-05-30T17:25:29Z</time>
      </trkpt>
      <trkpt lat="45.51342" lon="6.00881">
        <ele>279</ele>
        <time>2019-05-30T17:25:34Z</time>
      </trkpt>
      <trkpt lat="45.51384" lon="6.00806">
        <ele>280</ele>
        <time>2019-05-30T17:25:39Z</time>
      </trkpt>
      <trkpt lat="45.51446" lon="6.00701">
        <ele>284</ele>
        <time>2019-05-30T17:25:46Z</time>
      </trkpt>
      <trkpt lat="45.51549" lon="6.00579">
        <ele>289</ele>
        <time>2019-05-30T17:25:55Z</time>
      </trkpt>
      <trkpt lat="45.51592" lon="6.00455">
        <ele>288</ele>
        <time>2019-05-30T17:26:01Z</time>
      </trkpt>
      <trkpt lat="45.51731" lon="6.00255">
        <ele>284</ele>
        <time>2019-05-30T17:26:13Z</time>
      </trkpt>
      <trkpt lat="45.51828" lon="6.00118">
        <ele>286</ele>
        <time>2019-05-30T17:26:22Z</time>
      </trkpt>
      <trkpt lat="45.51826" lon="6.00057">
        <ele>286</ele>
        <time>2019-05-30T17:26:23Z</time>
      </trkpt>
      <trkpt lat="45.51858" lon="6.00025">
        <ele>286</ele>
        <time>2019-05-30T17:26:26Z</time>
      </trkpt>
      <trkpt lat="45.52217" lon="5.99572">
        <ele>290</ele>
        <time>2019-05-30T17:26:51Z</time>
      </trkpt>
      <trkpt lat="45.52554" lon="5.99327">
        <ele>298</ele>
        <time>2019-05-30T17:27:11Z</time>
      </trkpt>
      <trkpt lat="45.52944" lon="5.99263">
        <ele>302</ele>
        <time>2019-05-30T17:27:31Z</time>
      </trkpt>
      <trkpt lat="45.53267" lon="5.99227">
        <ele>299</ele>
        <time>2019-05-30T17:28:30Z</time>
      </trkpt>
      <trkpt lat="45.53329" lon="5.99215">
        <ele>302</ele>
        <time>2019-05-30T17:28:37Z</time>
      </trkpt>
      <trkpt lat="45.53506" lon="5.99249">
        <ele>307</ele>
        <time>2019-05-30T17:28:52Z</time>
      </trkpt>
      <trkpt lat="45.53856" lon="5.99069">
        <ele>307</ele>
        <time>2019-05-30T17:29:24Z</time>
      </trkpt>
      <trkpt lat="45.53923" lon="5.99031">
        <ele>307</ele>
        <time>2019-05-30T17:29:32Z</time>
      </trkpt>
      <trkpt lat="45.53951" lon="5.99016">
        <ele>305</ele>
        <time>2019-05-30T17:29:37Z</time>
      </trkpt>
      <trkpt lat="45.53991" lon="5.99001">
        <ele>303</ele>
        <time>2019-05-30T17:29:48Z</time>
      </trkpt>
      <trkpt lat="45.53985" lon="5.98953">
        <ele>306</ele>
        <time>2019-05-30T17:29:53Z</time>
      </trkpt>
      <trkpt lat="45.54011" lon="5.98914">
        <ele>305</ele>
        <time>2019-05-30T17:29:57Z</time>
      </trkpt>
      <trkpt lat="45.54348" lon="5.98417">
        <ele>306</ele>
        <time>2019-05-30T17:30:28Z</time>
      </trkpt>
      <trkpt lat="45.54358" lon="5.98401">
        <ele>306</ele>
        <time>2019-05-30T17:30:29Z</time>
      </trkpt>
      <trkpt lat="45.54373" lon="5.98376">
        <ele>304</ele>
        <time>2019-05-30T17:30:31Z</time>
      </trkpt>
      <trkpt lat="45.5439" lon="5.98325">
        <ele>304</ele>
        <time>2019-05-30T17:30:34Z</time>
      </trkpt>
      <trkpt lat="45.54401" lon="5.98254">
        <ele>306</ele>
        <time>2019-05-30T17:30:38Z</time>
      </trkpt>
      <trkpt lat="45.54397" lon="5.98211">
        <ele>307</ele>
        <time>2019-05-30T17:30:40Z</time>
      </trkpt>
      <trkpt lat="45.5437" lon="5.98066">
        <ele>307</ele>
        <time>2019-05-30T17:30:48Z</time>
      </trkpt>
      <trkpt lat="45.54378" lon="5.97969">
        <ele>300</ele>
        <time>2019-05-30T17:30:54Z</time>
      </trkpt>
      <trkpt lat="45.5439" lon="5.97928">
        <ele>295</ele>
        <time>2019-05-30T17:31:00Z</time>
      </trkpt>
      <trkpt lat="45.54408" lon="5.97884">
        <ele>296</ele>
        <time>2019-05-30T17:31:05Z</time>
      </trkpt>
      <trkpt lat="45.54525" lon="5.97552">
        <ele>294</ele>
        <time>2019-05-30T17:31:26Z</time>
      </trkpt>
      <trkpt lat="45.54532" lon="5.97528">
        <ele>293</ele>
        <time>2019-05-30T17:31:29Z</time>
      </trkpt>
      <trkpt lat="45.54544" lon="5.97522">
        <ele>292</ele>
        <time>2019-05-30T17:31:31Z</time>
      </trkpt>
      <trkpt lat="45.54554" lon="5.97515">
        <ele>291</ele>
        <time>2019-05-30T17:31:33Z</time>
      </trkpt>
      <trkpt lat="45.54559" lon="5.97498">
        <ele>290</ele>
        <time>2019-05-30T17:31:36Z</time>
      </trkpt>
      <trkpt lat="45.54551" lon="5.9747">
        <ele>290</ele>
        <time>2019-05-30T17:31:37Z</time>
      </trkpt>
      <trkpt lat="45.5456" lon="5.97417">
        <ele>291</ele>
        <time>2019-05-30T17:31:41Z</time>
      </trkpt>
      <trkpt lat="45.54593" lon="5.97331">
        <ele>292</ele>
        <time>2019-05-30T17:31:46Z</time>
      </trkpt>
      <trkpt lat="45.54634" lon="5.97268">
        <ele>293</ele>
        <time>2019-05-30T17:31:50Z</time>
      </trkpt>
      <trkpt lat="45.54708" lon="5.97205">
        <ele>297</ele>
        <time>2019-05-30T17:31:56Z</time>
      </trkpt>
      <trkpt lat="45.5512" lon="5.96965">
        <ele>289</ele>
        <time>2019-05-30T17:32:26Z</time>
      </trkpt>
      <trkpt lat="45.55127" lon="5.96956">
        <ele>289</ele>
        <time>2019-05-30T17:32:27Z</time>
      </trkpt>
      <trkpt lat="45.55144" lon="5.96955">
        <ele>288</ele>
        <time>2019-05-30T17:32:29Z</time>
      </trkpt>
      <trkpt lat="45.55155" lon="5.96945">
        <ele>287</ele>
        <time>2019-05-30T17:32:32Z</time>
      </trkpt>
      <trkpt lat="45.55221" lon="5.9685">
        <ele>288</ele>
        <time>2019-05-30T17:32:42Z</time>
      </trkpt>
      <trkpt lat="45.55405" lon="5.96713">
        <ele>281</ele>
        <time>2019-05-30T17:33:01Z</time>
      </trkpt>
      <trkpt lat="45.55413" lon="5.96703">
        <ele>281</ele>
        <time>2019-05-30T17:33:02Z</time>
      </trkpt>
      <trkpt lat="45.5542" lon="5.96687">
        <ele>280</ele>
        <time>2019-05-30T17:33:05Z</time>
      </trkpt>
      <trkpt lat="45.55426" lon="5.96669">
        <ele>278</ele>
        <time>2019-05-30T17:33:22Z</time>
      </trkpt>
      <trkpt lat="45.55438" lon="5.96612">
        <ele>279</ele>
        <time>2019-05-30T17:33:28Z</time>
      </trkpt>
      <trkpt lat="45.55502" lon="5.96467">
        <ele>282</ele>
        <time>2019-05-30T17:33:38Z</time>
      </trkpt>
      <trkpt lat="45.55621" lon="5.96302">
        <ele>280</ele>
        <time>2019-05-30T17:33:53Z</time>
      </trkpt>
      <trkpt lat="45.5576" lon="5.96018">
        <ele>275</ele>
        <time>2019-05-30T17:34:13Z</time>
      </trkpt>
      <trkpt lat="45.55809" lon="5.95865">
        <ele>272</ele>
        <time>2019-05-30T17:34:26Z</time>
      </trkpt>
      <trkpt lat="45.55811" lon="5.95858">
        <ele>271</ele>
        <time>2019-05-30T17:34:30Z</time>
      </trkpt>
      <trkpt lat="45.55817" lon="5.95839">
        <ele>279</ele>
        <time>2019-05-30T17:35:07Z</time>
      </trkpt>
      <trkpt lat="45.55865" lon="5.95651">
        <ele>279</ele>
        <time>2019-05-30T17:35:22Z</time>
      </trkpt>
      <trkpt lat="45.55902" lon="5.95407">
        <ele>286</ele>
        <time>2019-05-30T17:35:36Z</time>
      </trkpt>
      <trkpt lat="45.5593" lon="5.95347">
        <ele>285</ele>
        <time>2019-05-30T17:35:42Z</time>
      </trkpt>
      <trkpt lat="45.55932" lon="5.95336">
        <ele>285</ele>
        <time>2019-05-30T17:35:44Z</time>
      </trkpt>
      <trkpt lat="45.55931" lon="5.95302">
        <ele>285</ele>
        <time>2019-05-30T17:35:47Z</time>
      </trkpt>
      <trkpt lat="45.55948" lon="5.95237">
        <ele>284</ele>
        <time>2019-05-30T17:35:52Z</time>
      </trkpt>
      <trkpt lat="45.55958" lon="5.95211">
        <ele>282</ele>
        <time>2019-05-30T17:35:55Z</time>
      </trkpt>
      <trkpt lat="45.55966" lon="5.95203">
        <ele>282</ele>
        <time>2019-05-30T17:35:56Z</time>
      </trkpt>
      <trkpt lat="45.5597" lon="5.95196">
        <ele>280</ele>
        <time>2019-05-30T17:35:58Z</time>
      </trkpt>
      <trkpt lat="45.55971" lon="5.95158">
        <ele>280</ele>
        <time>2019-05-30T17:36:01Z</time>
      </trkpt>
      <trkpt lat="45.55975" lon="5.95086">
        <ele>281</ele>
        <time>2019-05-30T17:36:06Z</time>
      </trkpt>
      <trkpt lat="45.55966" lon="5.9496">
        <ele>279</ele>
        <time>2019-05-30T17:36:14Z</time>
      </trkpt>
      <trkpt lat="45.55966" lon="5.94949">
        <ele>278</ele>
        <time>2019-05-30T17:36:15Z</time>
      </trkpt>
      <trkpt lat="45.55967" lon="5.94939">
        <ele>278</ele>
        <time>2019-05-30T17:36:16Z</time>
      </trkpt>
      <trkpt lat="45.55979" lon="5.94928">
        <ele>277</ele>
        <time>2019-05-30T17:36:18Z</time>
      </trkpt>
      <trkpt lat="45.56103" lon="5.94891">
        <ele>274</ele>
        <time>2019-05-30T17:36:28Z</time>
      </trkpt>
      <trkpt lat="45.56138" lon="5.94901">
        <ele>272</ele>
        <time>2019-05-30T17:36:31Z</time>
      </trkpt>
      <trkpt lat="45.56305" lon="5.94898">
        <ele>270</ele>
        <time>2019-05-30T17:36:47Z</time>
      </trkpt>
      <trkpt lat="45.56484" lon="5.94943">
        <ele>271</ele>
        <time>2019-05-30T17:37:03Z</time>
      </trkpt>
      <trkpt lat="45.56499" lon="5.94941">
        <ele>270</ele>
        <time>2019-05-30T17:37:05Z</time>
      </trkpt>
      <trkpt lat="45.56513" lon="5.94915">
        <ele>269</ele>
        <time>2019-05-30T17:37:08Z</time>
      </trkpt>
      <trkpt lat="45.56543" lon="5.94861">
        <ele>270</ele>
        <time>2019-05-30T17:37:14Z</time>
      </trkpt>
      <trkpt lat="45.56542" lon="5.94852">
        <ele>270</ele>
        <time>2019-05-30T17:37:16Z</time>
      </trkpt>
      <trkpt lat="45.56539" lon="5.94829">
        <ele>269</ele>
        <time>2019-05-30T17:37:18Z</time>
      </trkpt>
      <trkpt lat="45.56501" lon="5.94745">
        <ele>269</ele>
        <time>2019-05-30T17:37:25Z</time>
      </trkpt>
      <trkpt lat="45.56466" lon="5.94695">
        <ele>268</ele>
        <time>2019-05-30T17:37:30Z</time>
      </trkpt>
      <trkpt lat="45.56462" lon="5.94683">
        <ele>268</ele>
        <time>2019-05-30T17:37:32Z</time>
      </trkpt>
      <trkpt lat="45.56466" lon="5.94476">
        <ele>267</ele>
        <time>2019-05-30T17:37:42Z</time>
      </trkpt>
      <trkpt lat="45.56465" lon="5.9446">
        <ele>267</ele>
        <time>2019-05-30T17:37:43Z</time>
      </trkpt>
      <trkpt lat="45.56462" lon="5.94443">
        <ele>267</ele>
        <time>2019-05-30T17:37:44Z</time>
      </trkpt>
      <trkpt lat="45.5645" lon="5.94419">
        <ele>267</ele>
        <time>2019-05-30T17:37:46Z</time>
      </trkpt>
      <trkpt lat="45.56433" lon="5.94401">
        <ele>266</ele>
        <time>2019-05-30T17:37:49Z</time>
      </trkpt>
      <trkpt lat="45.56429" lon="5.94388">
        <ele>266</ele>
        <time>2019-05-30T17:37:50Z</time>
      </trkpt>
      <trkpt lat="45.56392" lon="5.9436">
        <ele>266</ele>
        <time>2019-05-30T17:37:55Z</time>
      </trkpt>
      <trkpt lat="45.56383" lon="5.94353">
        <ele>265</ele>
        <time>2019-05-30T17:37:56Z</time>
      </trkpt>
      <trkpt lat="45.56196" lon="5.94184">
        <ele>264</ele>
        <time>2019-05-30T17:38:23Z</time>
      </trkpt>
      <trkpt lat="45.56146" lon="5.94161">
        <ele>264</ele>
        <time>2019-05-30T17:38:31Z</time>
      </trkpt>
      <trkpt lat="45.56127" lon="5.94159">
        <ele>264</ele>
        <time>2019-05-30T17:38:34Z</time>
      </trkpt>
      <trkpt lat="45.5611" lon="5.94164">
        <ele>265</ele>
        <time>2019-05-30T17:38:37Z</time>
      </trkpt>
      <trkpt lat="45.56096" lon="5.94212">
        <ele>266</ele>
        <time>2019-05-30T17:38:41Z</time>
      </trkpt>
      <trkpt lat="45.5607" lon="5.94225">
        <ele>267</ele>
        <time>2019-05-30T17:38:43Z</time>
      </trkpt>
      <trkpt lat="45.56042" lon="5.94221">
        <ele>268</ele>
        <time>2019-05-30T17:38:45Z</time>
      </trkpt>
      <trkpt lat="45.56006" lon="5.94191">
        <ele>270</ele>
        <time>2019-05-30T17:38:49Z</time>
      </trkpt>
      <trkpt lat="45.55961" lon="5.94137">
        <ele>277</ele>
        <time>2019-05-30T17:38:55Z</time>
      </trkpt>
      <trkpt lat="45.55867" lon="5.94129">
        <ele>284</ele>
        <time>2019-05-30T17:39:03Z</time>
      </trkpt>
      <trkpt lat="45.55841" lon="5.94107">
        <ele>286</ele>
        <time>2019-05-30T17:39:06Z</time>
      </trkpt>
      <trkpt lat="45.55801" lon="5.93991">
        <ele>297</ele>
        <time>2019-05-30T17:39:17Z</time>
      </trkpt>
      <trkpt lat="45.55778" lon="5.93982">
        <ele>298</ele>
        <time>2019-05-30T17:39:21Z</time>
      </trkpt>
      <trkpt lat="45.55744" lon="5.94009">
        <ele>302</ele>
        <time>2019-05-30T17:39:26Z</time>
      </trkpt>
      <trkpt lat="45.55729" lon="5.94005">
        <ele>302</ele>
        <time>2019-05-30T17:39:27Z</time>
      </trkpt>
      <trkpt lat="45.55677" lon="5.94036">
        <ele>305</ele>
        <time>2019-05-30T17:39:33Z</time>
      </trkpt>
      <trkpt lat="45.55669" lon="5.94018">
        <ele>307</ele>
        <time>2019-05-30T17:39:37Z</time>
      </trkpt>
      <trkpt lat="45.55684" lon="5.93997">
        <ele>309</ele>
        <time>2019-05-30T17:39:40Z</time>
      </trkpt>
      <trkpt lat="45.55697" lon="5.93984">
        <ele>309</ele>
        <time>2019-05-30T17:39:42Z</time>
      </trkpt>
      <trkpt lat="45.55705" lon="5.93962">
        <ele>309</ele>
        <time>2019-05-30T17:39:44Z</time>
      </trkpt>
      <trkpt lat="45.55695" lon="5.93944">
        <ele>309</ele>
        <time>2019-05-30T17:39:47Z</time>
      </trkpt>
      <trkpt lat="45.55572" lon="5.93946">
        <ele>319</ele>
        <time>2019-05-30T17:40:01Z</time>
      </trkpt>
      <trkpt lat="45.55557" lon="5.93932">
        <ele>322</ele>
        <time>2019-05-30T17:40:04Z</time>
      </trkpt>
      <trkpt lat="45.55551" lon="5.93903">
        <ele>324</ele>
        <time>2019-05-30T17:40:07Z</time>
      </trkpt>
      <trkpt lat="45.55544" lon="5.93881">
        <ele>325</ele>
        <time>2019-05-30T17:40:09Z</time>
      </trkpt>
      <trkpt lat="45.55533" lon="5.93871">
        <ele>327</ele>
        <time>2019-05-30T17:40:11Z</time>
      </trkpt>
      <trkpt lat="45.55429" lon="5.93867">
        <ele>335</ele>
        <time>2019-05-30T17:40:23Z</time>
      </trkpt>
      <trkpt lat="45.552" lon="5.93909">
        <ele>345</ele>
        <time>2019-05-30T17:40:47Z</time>
      </trkpt>
      <trkpt lat="45.55191" lon="5.93909">
        <ele>346</ele>
        <time>2019-05-30T17:40:49Z</time>
      </trkpt>
      <trkpt lat="45.55214" lon="5.9378">
        <ele>362</ele>
        <time>2019-05-30T17:41:16Z</time>
      </trkpt>
      <trkpt lat="45.55217" lon="5.93773">
        <ele>361</ele>
        <time>2019-05-30T17:42:31Z</time>
      </trkpt>
      <trkpt lat="45.55223" lon="5.93778">
        <ele>361</ele>
        <time>2019-05-30T17:42:33Z</time>
      </trkpt>
      <trkpt lat="45.55205" lon="5.93772">
        <ele>371</ele>
        <time>2019-05-30T17:58:05Z</time>
      </trkpt>
      <trkpt lat="45.57207" lon="5.94916">
        <ele>289</ele>
        <time>2019-06-01T13:47:12Z</time>
      </trkpt>
      <trkpt lat="45.57205" lon="5.94916">
        <ele>289</ele>
        <time>2019-06-01T13:47:18Z</time>
      </trkpt>
    </trkseg>
  </trk>
  <rte>
    <name><![CDATA[4 avr. 2019 à 23:11:12]]></name>
    <cmt><![CDATA[4 avr. 2019 à 23:11:12]]></cmt>
    <desc><![CDATA[{DC1}Heure de fin	: 
Durée totale	: 0h00:00
Moyenne globale	: -
Pente moyenne	: 0.00 %
Aire incluse	: 7.4932 ha
Détails par segments
distance  | durée    | vit.moy. | vit.max. | déniv. + | déniv -
   km     | hh:mn:ss |   km/h   |   km/h   |    m     |    m
     0.81 | 00:00:00 |      0.0 |      0.0 |        0 |        0{DC2}]]></desc>
      <rtept lat="45.60077" lon="6.18221">
        <ele>1608.6</ele>
      </rtept>
      <rtept lat="45.59468" lon="6.1822">
        <ele>1760.9</ele>
      </rtept>
      <rtept lat="45.59468" lon="6.1822">
        <ele>1760.9</ele>
      </rtept>
    </rte>
  <rte>
    <name><![CDATA[10 févr. 2019 à 15:16:12]]></name>
    <cmt><![CDATA[10 févr. 2019 à 15:16:12]]></cmt>
    <desc><![CDATA[{DC1}Heure de fin	: 00:09:21
Durée totale	: -17690439h43:48
Moyenne globale	: -
Pente moyenne	: 7.00 %
Aire incluse	: 221.0936 ha
Détails par segments
distance  | durée    | vit.moy. | vit.max. | déniv. + | déniv -
   km     | hh:mn:ss |   km/h   |   km/h   |    m     |    m
     7.48 | 00:00:00 |      0.0 |      0.0 |        0 |        0{DC2}]]></desc>
      <rtept lat="45.55203" lon="5.93805">
        <ele>376</ele>
      </rtept>
      <rtept lat="45.55177" lon="5.93873">
        <ele>369</ele>
      </rtept>
      <rtept lat="45.55176" lon="5.93942">
        <ele>367</ele>
      </rtept>
      <rtept lat="45.55105" lon="5.93942">
        <ele>367</ele>
      </rtept>
      <rtept lat="45.54993" lon="5.93908">
        <ele>371</ele>
      </rtept>
      <rtept lat="45.54929" lon="5.94099">
        <ele>370</ele>
      </rtept>
      <rtept lat="45.54908" lon="5.94204">
        <ele>367</ele>
      </rtept>
      <rtept lat="45.54991" lon="5.94287">
        <ele>365</ele>
      </rtept>
      <rtept lat="45.5506" lon="5.94384">
        <ele>361</ele>
      </rtept>
      <rtept lat="45.55147" lon="5.94384">
        <ele>357</ele>
      </rtept>
      <rtept lat="45.55129" lon="5.94607">
        <ele>358</ele>
      </rtept>
      <rtept lat="45.55029" lon="5.94809">
        <ele>355</ele>
      </rtept>
      <rtept lat="45.54884" lon="5.94886">
        <ele>346</ele>
      </rtept>
      <rtept lat="45.5477" lon="5.94931">
        <ele>342</ele>
      </rtept>
      <rtept lat="45.5468" lon="5.95004">
        <ele>339</ele>
      </rtept>
      <rtept lat="45.54596" lon="5.95133">
        <ele>340</ele>
      </rtept>
      <rtept lat="45.54446" lon="5.95195">
        <ele>343</ele>
      </rtept>
      <rtept lat="45.543" lon="5.95262">
        <ele>344</ele>
      </rtept>
      <rtept lat="45.54156" lon="5.95212">
        <ele>337</ele>
      </rtept>
      <rtept lat="45.54041" lon="5.95204">
        <ele>338</ele>
      </rtept>
      <rtept lat="45.53917" lon="5.95141">
        <ele>343</ele>
      </rtept>
      <rtept lat="45.53844" lon="5.95135">
        <ele>347</ele>
      </rtept>
      <rtept lat="45.53765" lon="5.9503">
        <ele>349</ele>
      </rtept>
      <rtept lat="45.5381" lon="5.94993">
        <ele>352</ele>
      </rtept>
      <rtept lat="45.53781" lon="5.94901">
        <ele>358</ele>
      </rtept>
      <rtept lat="45.53711" lon="5.94845">
        <ele>365</ele>
      </rtept>
      <rtept lat="45.53702" lon="5.94764">
        <ele>369</ele>
      </rtept>
      <rtept lat="45.53817" lon="5.94807">
        <ele>376</ele>
      </rtept>
      <rtept lat="45.53865" lon="5.94633">
        <ele>389</ele>
      </rtept>
      <rtept lat="45.53778" lon="5.94491">
        <ele>408</ele>
      </rtept>
      <rtept lat="45.53757" lon="5.94371">
        <ele>425</ele>
      </rtept>
      <rtept lat="45.53775" lon="5.94279">
        <ele>434</ele>
      </rtept>
      <rtept lat="45.53726" lon="5.94227">
        <ele>442</ele>
      </rtept>
      <rtept lat="45.53572" lon="5.94146">
        <ele>468</ele>
      </rtept>
      <rtept lat="45.53664" lon="5.94039">
        <ele>483</ele>
      </rtept>
      <rtept lat="45.53532" lon="5.93983">
        <ele>505</ele>
      </rtept>
      <rtept lat="45.53416" lon="5.93985">
        <ele>516</ele>
      </rtept>
      <rtept lat="45.5355" lon="5.93869">
        <ele>532</ele>
      </rtept>
      <rtept lat="45.5359" lon="5.93845">
        <ele>537</ele>
      </rtept>
      <rtept lat="45.5355" lon="5.93802">
        <ele>544</ele>
      </rtept>
      <rtept lat="45.53724" lon="5.93554">
        <ele>587</ele>
      </rtept>
      <rtept lat="45.53691" lon="5.93339">
        <ele>592</ele>
      </rtept>
      <rtept lat="45.5376" lon="5.93178">
        <ele>575</ele>
      </rtept>
      <rtept lat="45.53843" lon="5.93069">
        <ele>555</ele>
      </rtept>
      <rtept lat="45.53939" lon="5.93157">
        <ele>541</ele>
      </rtept>
      <rtept lat="45.54068" lon="5.93234">
        <ele>522</ele>
      </rtept>
      <rtept lat="45.54219" lon="5.93247">
        <ele>514</ele>
      </rtept>
      <rtept lat="45.54355" lon="5.93232">
        <ele>512</ele>
      </rtept>
      <rtept lat="45.54489" lon="5.9326">
        <ele>508</ele>
      </rtept>
      <rtept lat="45.54636" lon="5.93249">
        <ele>510</ele>
      </rtept>
      <rtept lat="45.54758" lon="5.93249">
        <ele>510</ele>
      </rtept>
      <rtept lat="45.54818" lon="5.93298">
        <ele>507</ele>
      </rtept>
      <rtept lat="45.54796" lon="5.93418">
        <ele>496</ele>
      </rtept>
      <rtept lat="45.5491" lon="5.93433">
        <ele>483</ele>
      </rtept>
      <rtept lat="45.55126" lon="5.9341">
        <ele>463</ele>
      </rtept>
      <rtept lat="45.55256" lon="5.93453">
        <ele>444</ele>
      </rtept>
      <rtept lat="45.55329" lon="5.93558">
        <ele>430</ele>
      </rtept>
      <rtept lat="45.55222" lon="5.93642">
        <ele>415</ele>
      </rtept>
      <rtept lat="45.55195" lon="5.93811">
        <ele>375</ele>
      </rtept>
    </rte>
  <rte>
    <name><![CDATA[10 févr. 2019 à 15:15:48]]></name>
    <cmt><![CDATA[10 févr. 2019 à 15:15:48]]></cmt>
    <desc><![CDATA[{DC1}Heure de fin	: 00:09:21
Durée totale	: -17690439h44:12
Moyenne globale	: -
Pente moyenne	: nan %
Aire incluse	: 0.0000 ha
Détails par segments
distance  | durée    | vit.moy. | vit.max. | déniv. + | déniv -
   km     | hh:mn:ss |   km/h   |   km/h   |    m     |    m
     0.00 | 00:00:00 |      0.0 |      0.0 |        0 |        0{DC2}]]></desc>
      <rtept lat="45.5175" lon="5.93483">
        <ele>732.3</ele>
      </rtept>
    </rte>
  <rte>
    <name><![CDATA[10 févr. 2019 à 15:06:08]]></name>
    <cmt><![CDATA[10 févr. 2019 à 15:06:08]]></cmt>
    <desc><![CDATA[{DC1}Heure de fin	: 
Durée totale	: 0h00:00
Moyenne globale	: -
Pente moyenne	: 8.03 %
Aire incluse	: 204.0794 ha
Détails par segments
distance  | durée    | vit.moy. | vit.max. | déniv. + | déniv -
   km     | hh:mn:ss |   km/h   |   km/h   |    m     |    m
    12.88 | 00:00:00 |      0.0 |      0.0 |        0 |        0{DC2}]]></desc>
      <rtept lat="45.5509" lon="5.9394">
        <ele>368</ele>
      </rtept>
      <rtept lat="45.55217" lon="5.93791">
        <ele>377</ele>
      </rtept>
    </rte>
  <rte>
    <name><![CDATA[10 févr. 2019 à 14:22:06]]></name>
    <cmt><![CDATA[10 févr. 2019 à 14:22:06]]></cmt>
    <desc><![CDATA[{DC1}Heure de fin	: 00:09:21
Durée totale	: -17690438h37:54
Moyenne globale	: -
Pente moyenne	: 5.62 %
Aire incluse	: 5.7967 ha
Détails par segments
distance  | durée    | vit.moy. | vit.max. | déniv. + | déniv -
   km     | hh:mn:ss |   km/h   |   km/h   |    m     |    m
     3.30 | 00:00:00 |      0.0 |      0.0 |        0 |        0{DC2}]]></desc>
      <rtept lat="45.55169" lon="5.93089">
        <ele>415</ele>
      </rtept>
      <rtept lat="45.5518" lon="5.93905">
        <ele>366</ele>
      </rtept>
    </rte>
  <rte>
    <name><![CDATA[10 févr. 2019 à 09:50:45]]></name>
    <cmt><![CDATA[10 févr. 2019 à 09:50:45]]></cmt>
    <desc><![CDATA[{DC1}Heure de fin	: 00:09:21
Durée totale	: -17690433h09:14
Moyenne globale	: -
Pente moyenne	: 0.00 %
Aire incluse	: 50.7119 ha
Détails par segments
distance  | durée    | vit.moy. | vit.max. | déniv. + | déniv -
   km     | hh:mn:ss |   km/h   |   km/h   |    m     |    m
     4.33 | 00:00:00 |      0.0 |      0.0 |        0 |        0{DC2}]]></desc>
      <rtept lat="45.5503" lon="5.93918">
        <ele>373.6</ele>
      </rtept>
      <rtept lat="45.55191" lon="5.93893">
        <ele>366.7</ele>
      </rtept>
    </rte>
  <rte>
    <name><![CDATA[10 févr. 2019 à 09:07:08]]></name>
    <cmt><![CDATA[10 févr. 2019 à 09:07:08]]></cmt>
    <desc><![CDATA[{DC1}Heure de fin	: 00:09:21
Durée totale	: -17690433h52:52
Moyenne globale	: -
Pente moyenne	: nan %
Aire incluse	: 0.0000 ha
Détails par segments
distance  | durée    | vit.moy. | vit.max. | déniv. + | déniv -
   km     | hh:mn:ss |   km/h   |   km/h   |    m     |    m
     0.00 | 00:00:00 |      0.0 |      0.0 |        0 |        0{DC2}]]></desc>
      <rtept lat="45.55102" lon="5.93919">
        <ele>370.1</ele>
      </rtept>
    </rte>
  <rte>
    <name><![CDATA[10 févr. 2019 à 09:02:25]]></name>
    <cmt><![CDATA[10 févr. 2019 à 09:02:25]]></cmt>
    <desc><![CDATA[{DC1}Heure de fin	: 00:09:21
Durée totale	: -17690433h57:35
Moyenne globale	: -
Pente moyenne	: nan %
Aire incluse	: 0.0000 ha
Détails par segments
distance  | durée    | vit.moy. | vit.max. | déniv. + | déniv -
   km     | hh:mn:ss |   km/h   |   km/h   |    m     |    m
     0.00 | 00:00:00 |      0.0 |      0.0 |        0 |        0{DC2}]]></desc>
      <rtept lat="45.55207" lon="5.93813">
        <ele>375.2</ele>
      </rtept>
    </rte>
  <rte>
    <name><![CDATA[10 févr. 2019 à 09:00:27]]></name>
    <cmt><![CDATA[10 févr. 2019 à 09:00:27]]></cmt>
    <desc><![CDATA[{DC1}Heure de fin	: 00:09:21
Durée totale	: -17690433h59:32
Moyenne globale	: -
Pente moyenne	: nan %
Aire incluse	: 0.0000 ha
Détails par segments
distance  | durée    | vit.moy. | vit.max. | déniv. + | déniv -
   km     | hh:mn:ss |   km/h   |   km/h   |    m     |    m
     0.00 | 00:00:00 |      0.0 |      0.0 |        0 |        0{DC2}]]></desc>
      <rtept lat="45.55244" lon="5.93858">
        <ele>366.6</ele>
      </rtept>
    </rte>
</gpx>